Time;durP1;ratioP1;P1;durP2;ratioP2;P2;SDS_P1;SDS_P2;PMS_P1;PMS_P2;Temp;Humidity;BMP_temperature;BMP_pressure;BME280_temperature;BME280_humidity;BME280_pressure;Samples;Min_cycle;Max_cycle;Signal;HPM_P1;HPM_P2
2021/12/11 00:00:57;;;;;;;22.85;10.68;;;0.90;99.90;;;;;;5105283;28;20085;-60
2021/12/11 00:03:31;;;;;;;23.05;11.90;;;0.90;99.90;;;;;;5102800;28;20495;-60
2021/12/11 00:06:11;;;;;;;28.15;12.48;;;0.80;99.90;;;;;;5119337;22;20039;-62
2021/12/11 00:08:40;;;;;;;23.98;12.02;;;0.70;99.90;;;;;;5132805;27;20562;-61
2021/12/11 00:11:19;;;;;;;20.00;11.98;;;0.70;99.90;;;;;;5134810;27;20043;-59
2021/12/11 00:13:47;;;;;;;18.20;11.38;;;0.70;99.90;;;;;;5135204;27;20039;-62
2021/12/11 00:16:17;;;;;;;19.85;11.07;;;0.70;99.90;;;;;;5125546;27;20047;-62
2021/12/11 00:18:48;;;;;;;47.15;22.30;;;0.70;99.90;;;;;;5114904;28;20055;-62
2021/12/11 00:21:17;;;;;;;22.63;11.98;;;0.80;99.90;;;;;;5114549;28;20036;-62
2021/12/11 00:23:51;;;;;;;23.45;11.82;;;0.80;99.90;;;;;;5114601;28;20036;-62
2021/12/11 00:26:27;;;;;;;21.58;10.23;;;0.70;99.90;;;;;;5114080;28;20390;-62
2021/12/11 00:28:54;;;;;;;24.02;12.40;;;0.70;99.90;;;;;;5114158;28;20043;-59
2021/12/11 00:31:21;;;;;;;24.85;11.60;;;0.70;99.90;;;;;;5114313;28;20043;-60
2021/12/11 00:33:50;;;;;;;23.98;11.50;;;0.80;99.90;;;;;;5114316;28;20047;-62
2021/12/11 00:36:21;;;;;;;23.33;11.85;;;0.80;99.90;;;;;;5113614;28;20044;-59
2021/12/11 00:38:52;;;;;;;19.42;11.02;;;0.80;99.90;;;;;;5096155;28;20097;-59
2021/12/11 00:41:21;;;;;;;21.23;11.48;;;0.80;99.90;;;;;;5113901;28;20035;-62
2021/12/11 00:43:50;;;;;;;21.95;11.63;;;0.90;99.90;;;;;;5114061;28;20063;-59
2021/12/11 00:46:23;;;;;;;21.33;11.25;;;0.90;99.90;;;;;;5113620;28;20035;-59
2021/12/11 00:48:51;;;;;;;19.05;10.98;;;0.90;99.90;;;;;;5114215;28;20097;-61
2021/12/11 00:51:21;;;;;;;18.85;9.07;;;0.90;99.90;;;;;;5113925;28;20039;-62
2021/12/11 00:53:51;;;;;;;24.65;11.90;;;0.90;99.90;;;;;;5113834;28;20449;-62
2021/12/11 00:56:22;;;;;;;24.23;12.18;;;0.90;99.90;;;;;;5113478;28;20048;-62
2021/12/11 00:58:52;;;;;;;21.40;11.52;;;0.90;99.90;;;;;;5113775;28;20474;-62
2021/12/11 01:01:26;;;;;;;24.83;11.57;;;0.80;99.90;;;;;;5113679;28;20048;-62
2021/12/11 01:04:08;;;;;;;25.15;11.70;;;0.80;99.90;;;;;;5113789;28;20039;-61
2021/12/11 01:06:45;;;;;;;24.42;12.50;;;0.80;99.90;;;;;;5108695;28;20047;-61
2021/12/11 01:09:18;;;;;;;24.87;12.57;;;0.80;99.90;;;;;;5110559;28;20043;-61
2021/12/11 01:11:47;;;;;;;27.30;12.20;;;0.80;99.90;;;;;;5113544;28;20338;-61
2021/12/11 01:14:25;;;;;;;23.30;12.13;;;0.80;99.90;;;;;;5113301;28;20492;-61
2021/12/11 01:17:02;;;;;;;22.30;12.15;;;0.70;99.90;;;;;;5113086;28;20104;-61
2021/12/11 01:19:36;;;;;;;21.92;12.38;;;0.80;99.90;;;;;;5113538;28;20086;-61
2021/12/11 01:22:21;;;;;;;19.75;11.90;;;0.70;99.90;;;;;;5113331;28;20062;-61
2021/12/11 01:24:52;;;;;;;22.05;12.00;;;0.70;99.90;;;;;;5113138;28;20460;-61
2021/12/11 01:27:24;;;;;;;20.13;11.15;;;0.80;99.90;;;;;;5112766;28;20100;-61
2021/12/11 01:29:56;;;;;;;19.85;11.32;;;0.70;99.90;;;;;;5113284;28;20523;-61
2021/12/11 01:32:25;;;;;;;21.38;12.35;;;0.80;99.90;;;;;;5113190;28;20047;-61
2021/12/11 01:34:52;;;;;;;24.20;12.30;;;0.80;99.90;;;;;;5112814;28;20088;-61
2021/12/11 01:37:19;;;;;;;;;;;0.80;99.90;;;;;;5113209;28;20069;-61
2021/12/11 01:39:48;;;;;;;25.98;12.73;;;0.80;99.90;;;;;;5113071;28;19976;-61
2021/12/11 01:42:23;;;;;;;23.23;12.40;;;0.80;99.90;;;;;;5112858;28;20096;-61
2021/12/11 01:44:52;;;;;;;28.05;12.90;;;0.80;99.90;;;;;;5113016;28;20074;-61
2021/12/11 01:47:25;;;;;;;18.80;11.48;;;0.80;99.90;;;;;;5111918;28;20040;-61
2021/12/11 01:49:56;;;;;;;21.55;11.52;;;0.80;99.90;;;;;;5112729;28;20051;-61
2021/12/11 01:52:37;;;;;;;20.20;12.00;;;0.90;99.90;;;;;;5112813;28;20108;-61
2021/12/11 01:55:29;;;;;;;24.10;12.60;;;0.90;99.90;;;;;;5112617;28;20063;-61
2021/12/11 01:57:56;;;;;;;25.27;11.75;;;0.90;99.90;;;;;;5112616;28;20044;-61
2021/12/11 02:00:27;;;;;;;;;;;0.90;99.90;;;;;;5112812;28;20070;-61
2021/12/11 02:02:58;;;;;;;24.80;12.10;;;0.90;99.90;;;;;;5112714;28;20075;-61
2021/12/11 02:05:29;;;;;;;21.38;11.48;;;0.80;99.90;;;;;;5112376;28;20084;-61
2021/12/11 02:08:01;;;;;;;20.75;12.02;;;0.80;99.90;;;;;;5112351;28;20487;-61
2021/12/11 02:10:34;;;;;;;22.77;11.63;;;0.80;99.90;;;;;;5112513;28;20105;-61
2021/12/11 02:13:08;;;;;;;21.05;12.75;;;0.90;99.90;;;;;;5112116;28;20044;-61
2021/12/11 02:15:45;;;;;;;21.08;12.05;;;0.80;99.90;;;;;;5112096;28;20043;-61
2021/12/11 02:18:18;;;;;;;22.17;12.60;;;0.80;99.90;;;;;;5112428;28;20096;-61
2021/12/11 02:20:51;;;;;;;24.48;12.35;;;0.80;99.90;;;;;;5112420;28;20544;-61
2021/12/11 02:23:19;;;;;;;19.17;12.07;;;0.80;99.90;;;;;;5112133;28;20040;-61
2021/12/11 02:25:50;;;;;;;26.23;13.10;;;0.70;99.90;;;;;;5111854;28;20059;-61
2021/12/11 02:28:40;;;;;;;23.33;13.18;;;0.70;99.90;;;;;;5112168;28;20039;-61
2021/12/11 02:31:18;;;;;;;21.88;12.45;;;0.60;99.90;;;;;;5111835;28;20044;-61
2021/12/11 02:33:53;;;;;;;24.58;12.50;;;0.70;99.90;;;;;;5112221;28;20070;-61
2021/12/11 02:36:43;;;;;;;28.10;14.05;;;0.60;99.90;;;;;;5111690;28;20042;-61
2021/12/11 02:39:20;;;;;;;27.95;13.00;;;0.60;99.90;;;;;;5112154;28;20093;-61
2021/12/11 02:41:50;;;;;;;24.98;13.05;;;0.60;99.90;;;;;;5112001;28;20039;-61
2021/12/11 02:44:33;;;;;;;23.33;14.02;;;0.70;99.90;;;;;;5111936;28;20085;-61
2021/12/11 02:47:38;;;;;;;25.70;13.20;;;0.70;99.90;;;;;;5111484;28;20058;-61
2021/12/11 02:50:23;;;;;;;26.00;12.60;;;0.60;99.90;;;;;;5112153;28;20036;-61
2021/12/11 02:53:01;;;;;;;21.27;12.95;;;0.60;99.90;;;;;;5111974;28;20078;-61
2021/12/11 02:55:37;;;;;;;28.27;13.40;;;0.60;99.90;;;;;;5111411;28;20145;-61
2021/12/11 02:58:10;;;;;;;20.85;12.27;;;0.60;99.90;;;;;;5112305;28;20439;-61
2021/12/11 03:00:45;;;;;;;23.75;13.38;;;0.60;99.90;;;;;;5114826;28;20148;-61
2021/12/11 03:03:14;;;;;;;24.25;12.45;;;0.60;99.90;;;;;;5116010;28;20035;-61
2021/12/11 03:05:51;;;;;;;23.85;12.85;;;0.60;99.90;;;;;;5115461;28;20092;-61
2021/12/11 03:08:21;;;;;;;28.02;13.40;;;0.60;99.90;;;;;;5116306;28;20044;-61
2021/12/11 03:10:54;;;;;;;24.80;13.32;;;0.60;99.90;;;;;;5115971;28;20051;-61
2021/12/11 03:13:23;;;;;;;28.83;13.52;;;0.70;99.90;;;;;;5115778;28;20043;-61
2021/12/11 03:15:50;;;;;;;21.80;12.35;;;0.70;99.90;;;;;;5115263;28;20051;-61
2021/12/11 03:18:17;;;;;;;22.05;12.65;;;0.70;99.90;;;;;;5115943;28;20051;-61
2021/12/11 03:20:45;;;;;;;;;;;0.70;99.90;;;;;;5116248;28;20051;-61
2021/12/11 03:23:12;;;;;;;15.70;8.75;;;0.80;99.90;;;;;;5115743;28;19920;-61
2021/12/11 03:25:40;;;;;;;21.67;11.93;;;0.70;99.90;;;;;;5115007;28;20039;-60
2021/12/11 03:28:09;;;;;;;22.52;12.00;;;0.80;99.90;;;;;;5115575;28;20658;-61
2021/12/11 03:30:52;;;;;;;29.58;12.73;;;0.80;99.90;;;;;;5115663;28;20035;-61
2021/12/11 03:33:20;;;;;;;21.45;12.15;;;0.80;99.90;;;;;;5115403;28;20043;-61
2021/12/11 03:35:47;;;;;;;;;;;0.80;99.90;;;;;;5115546;28;20081;-61
2021/12/11 03:38:15;;;;;;;24.27;12.50;;;0.80;99.90;;;;;;5115335;28;19957;-61
2021/12/11 03:40:42;;;;;;;22.65;12.45;;;0.90;99.90;;;;;;5115456;28;20518;-61
2021/12/11 03:43:14;;;;;;;23.92;13.20;;;0.80;99.90;;;;;;5115262;28;20449;-61
2021/12/11 03:45:43;;;;;;;25.25;12.68;;;0.80;99.90;;;;;;5114803;28;20096;-61
2021/12/11 03:48:14;;;;;;;24.63;13.95;;;0.80;99.90;;;;;;5115313;28;20086;-61
2021/12/11 03:50:44;;;;;;;24.17;12.70;;;0.70;99.90;;;;;;5115244;28;20483;-61
2021/12/11 03:53:12;;;;;;;23.45;13.98;;;0.70;99.90;;;;;;5115060;28;20040;-61
2021/12/11 03:55:48;;;;;;;21.85;12.52;;;0.70;99.90;;;;;;5114717;28;20047;-60
2021/12/11 03:58:15;;;;;;;24.33;13.07;;;0.70;99.90;;;;;;5114870;28;20510;-61
2021/12/11 04:00:42;;;;;;;;;;;0.70;99.90;;;;;;5115560;28;20089;-61
2021/12/11 04:03:12;;;;;;;26.38;14.27;;;0.70;99.90;;;;;;5114877;28;19919;-61
2021/12/11 04:05:42;;;;;;;27.25;13.80;;;0.70;99.90;;;;;;5114477;28;20044;-61
2021/12/11 04:08:12;;;;;;;28.67;14.50;;;0.80;99.90;;;;;;5114700;28;20044;-61
2021/12/11 04:10:40;;;;;;;30.67;14.80;;;0.70;99.90;;;;;;5114181;28;20521;-61
2021/12/11 04:13:07;;;;;;;;;;;0.80;99.90;;;;;;5114202;28;20047;-61
2021/12/11 04:15:36;;;;;;;21.03;10.77;;;0.80;99.90;;;;;;5114324;28;19926;-61
2021/12/11 04:18:05;;;;;;;36.95;16.08;;;0.80;99.90;;;;;;5114555;28;20273;-61
2021/12/11 04:20:36;;;;;;;24.15;14.10;;;0.80;99.90;;;;;;5114743;28;20395;-61
2021/12/11 04:23:04;;;;;;;28.50;14.27;;;0.90;99.90;;;;;;5114385;28;20036;-61
2021/12/11 04:25:32;;;;;;;27.02;13.90;;;0.80;99.90;;;;;;5114348;28;20075;-61
2021/12/11 04:27:59;;;;;;;25.08;14.38;;;0.90;99.90;;;;;;5114424;28;20043;-61
2021/12/11 04:30:27;;;;;;;31.67;14.73;;;0.80;99.90;;;;;;5114339;28;20560;-61
2021/12/11 04:32:55;;;;;;;28.83;14.90;;;0.80;99.90;;;;;;5114602;27;20100;-61
2021/12/11 04:35:27;;;;;;;27.80;14.88;;;0.90;99.90;;;;;;5113960;28;20043;-62
2021/12/11 04:37:55;;;;;;;28.48;14.68;;;0.90;99.90;;;;;;5114261;28;20036;-61
2021/12/11 04:40:28;;;;;;;30.75;15.05;;;0.80;99.90;;;;;;5114065;28;20047;-61
2021/12/11 04:43:02;;;;;;;28.92;15.50;;;0.90;99.90;;;;;;5114105;28;20100;-62
2021/12/11 04:45:38;;;;;;;25.83;14.25;;;0.90;99.90;;;;;;5113869;28;20445;-61
2021/12/11 04:48:18;;;;;;;26.80;15.07;;;0.80;99.90;;;;;;5114278;28;20081;-61
2021/12/11 04:50:59;;;;;;;29.13;15.32;;;0.80;99.90;;;;;;5113951;28;20038;-61
2021/12/11 04:58:42;;;;;;;;;;;0.80;99.90;;;;;;5114399;28;20073;-61
2021/12/11 05:09:25;;;;;;;32.13;15.82;;;0.60;99.90;;;;;;5089891;28;20060;-61
2021/12/11 05:12:09;;;;;;;29.10;15.48;;;0.70;99.90;;;;;;5113650;28;20048;-61
2021/12/11 05:14:37;;;;;;;33.20;15.32;;;0.70;99.90;;;;;;5113376;28;20055;-61
2021/12/11 05:17:07;;;;;;;34.38;17.58;;;0.60;99.90;;;;;;5113220;28;20053;-61
2021/12/11 05:19:34;;;;;;;39.30;17.88;;;0.60;99.90;;;;;;5113546;28;20470;-61
2021/12/11 05:22:03;;;;;;;29.92;16.83;;;0.70;99.90;;;;;;5112562;28;20074;-61
2021/12/11 05:24:30;;;;;;;32.78;16.95;;;0.70;99.90;;;;;;5113060;28;20039;-61
2021/12/11 05:26:57;;;;;;;39.63;16.88;;;0.60;99.90;;;;;;5112871;28;20635;-61
2021/12/11 05:29:24;;;;;;;27.95;15.25;;;0.70;99.90;;;;;;5113336;28;20043;-61
2021/12/11 05:31:51;;;;;;;28.25;15.23;;;0.60;99.90;;;;;;5113265;28;20040;-61
2021/12/11 05:34:18;;;;;;;28.55;15.32;;;0.60;99.90;;;;;;5113315;28;20084;-61
2021/12/11 05:36:46;;;;;;;32.50;16.85;;;0.50;99.90;;;;;;5112525;28;20048;-61
2021/12/11 05:39:17;;;;;;;32.42;17.02;;;0.50;99.90;;;;;;5112999;28;20112;-61
2021/12/11 05:41:46;;;;;;;31.92;16.25;;;0.60;99.90;;;;;;5113014;28;20047;-61
2021/12/11 05:44:14;;;;;;;33.95;16.92;;;0.60;99.90;;;;;;5112889;28;20491;-61
2021/12/11 05:46:41;;;;;;;33.25;17.70;;;0.60;99.90;;;;;;5112570;28;20039;-61
2021/12/11 05:49:09;;;;;;;35.00;17.38;;;0.70;99.90;;;;;;5112839;28;20073;-61
2021/12/11 05:51:39;;;;;;;36.33;17.90;;;0.60;99.90;;;;;;5112742;28;20039;-61
2021/12/11 05:54:11;;;;;;;39.63;17.48;;;0.60;99.90;;;;;;5112879;27;20108;-61
2021/12/11 05:56:40;;;;;;;41.80;16.65;;;0.60;99.90;;;;;;5112347;28;20058;-61
2021/12/11 05:59:11;;;;;;;40.08;21.17;;;0.60;99.90;;;;;;5112688;28;20096;-61
2021/12/11 06:01:48;;;;;;;38.70;19.55;;;0.50;99.90;;;;;;5112914;28;20043;-61
2021/12/11 06:04:25;;;;;;;27.98;15.20;;;0.50;99.90;;;;;;5112475;28;20071;-61
2021/12/11 06:06:54;;;;;;;41.75;20.13;;;0.50;99.90;;;;;;5126168;22;20043;-60
2021/12/11 06:09:25;;;;;;;34.85;19.30;;;0.60;99.90;;;;;;5112045;28;20040;-60
2021/12/11 06:11:56;;;;;;;44.65;21.48;;;0.60;99.90;;;;;;5112414;28;20046;-60
2021/12/11 06:14:24;;;;;;;54.35;26.05;;;0.70;99.90;;;;;;5112472;28;20047;-60
2021/12/11 06:16:54;;;;;;;37.78;20.08;;;0.70;99.90;;;;;;5110918;28;20051;-60
2021/12/11 06:19:22;;;;;;;34.88;18.55;;;0.70;99.90;;;;;;5112614;28;20073;-60
2021/12/11 06:21:50;;;;;;;34.58;17.98;;;0.70;99.90;;;;;;5112311;28;20065;-60
2021/12/11 06:24:19;;;;;;;30.10;16.83;;;0.70;99.90;;;;;;5112101;28;20584;-60
2021/12/11 06:26:46;;;;;;;33.88;17.20;;;0.80;99.90;;;;;;5111767;28;20040;-60
2021/12/11 06:29:13;;;;;;;;;;;0.80;99.90;;;;;;5112603;28;20116;-60
2021/12/11 06:31:42;;;;;;;37.20;18.40;;;0.70;99.90;;;;;;5112155;28;19981;-60
2021/12/11 06:34:11;;;;;;;38.78;18.13;;;0.70;99.90;;;;;;5093686;28;20407;-60
2021/12/11 06:36:40;;;;;;;32.78;17.88;;;0.70;99.90;;;;;;5111667;28;20043;-60
2021/12/11 06:39:14;;;;;;;36.70;18.10;;;0.70;99.90;;;;;;5111927;28;20424;-60
2021/12/11 06:41:47;;;;;;;46.22;22.23;;;0.60;99.90;;;;;;5111976;28;20064;-60
2021/12/11 06:44:14;;;;;;;42.50;22.30;;;0.60;99.90;;;;;;5111993;28;20100;-60
2021/12/11 06:46:42;;;;;;;40.72;20.75;;;0.70;99.90;;;;;;5111578;28;20529;-60
2021/12/11 06:49:09;;;;;;;35.97;20.17;;;0.60;99.90;;;;;;5111972;28;20042;-60
2021/12/11 06:51:37;;;;;;;;;;;0.60;99.90;;;;;;5112274;28;20043;-60
2021/12/11 06:54:09;;;;;;;31.80;17.13;;;0.70;99.90;;;;;;5111936;28;19959;-60
2021/12/11 06:56:38;;;;;;;36.92;17.15;;;0.70;99.90;;;;;;5111656;28;20096;-60
2021/12/11 06:59:05;;;;;;;38.30;17.52;;;0.60;99.90;;;;;;5111889;28;20062;-60
2021/12/11 07:01:34;;;;;;;33.45;17.83;;;0.60;99.90;;;;;;5108243;28;20077;-60
2021/12/11 07:04:05;;;;;;;36.60;18.52;;;0.60;99.90;;;;;;5111624;28;20044;-60
2021/12/11 07:06:32;;;;;;;34.50;17.83;;;0.60;99.90;;;;;;5111134;28;20087;-60
2021/12/11 07:09:00;;;;;;;33.70;17.95;;;0.60;99.90;;;;;;5097970;28;20547;-60
2021/12/11 07:11:28;;;;;;;37.55;20.17;;;0.60;99.90;;;;;;5091384;28;20067;-60
2021/12/11 07:13:54;;;;;;;;;;;0.70;99.90;;;;;;5091619;28;20052;-60
2021/12/11 07:16:22;;;;;;;37.38;17.33;;;0.70;99.90;;;;;;5099028;28;19919;-60
2021/12/11 07:18:50;;;;;;;32.22;17.10;;;0.80;99.90;;;;;;5111751;28;20077;-60
2021/12/11 07:21:17;;;;;;;33.97;17.88;;;0.80;99.90;;;;;;5100625;28;20102;-60
2021/12/11 07:23:48;;;;;;;32.08;18.05;;;0.90;99.90;;;;;;5091679;28;20046;-60
2021/12/11 07:26:28;;;;;;;37.33;18.60;;;0.90;99.90;;;;;;5091133;28;20043;-60
2021/12/11 07:28:57;;;;;;;33.28;18.02;;;0.90;99.90;;;;;;5091255;28;20101;-60
2021/12/11 07:31:25;;;;;;;41.55;20.17;;;0.80;99.90;;;;;;5098660;28;20039;-60
2021/12/11 07:33:53;;;;;;;35.70;18.98;;;0.80;99.90;;;;;;5111738;28;20051;-60
2021/12/11 07:36:21;;;;;;;33.35;18.65;;;0.70;99.90;;;;;;5111082;28;20051;-60
2021/12/11 07:38:49;;;;;;;47.28;19.20;;;0.70;99.90;;;;;;5111395;28;20043;-60
2021/12/11 07:41:17;;;;;;;43.75;20.65;;;0.80;99.90;;;;;;5110952;28;20088;-60
2021/12/11 07:43:46;;;;;;;27.55;15.05;;;0.80;99.90;;;;;;5111419;28;20063;-60
2021/12/11 07:46:16;;;;;;;32.20;15.98;;;0.80;99.90;;;;;;5085126;28;20492;-60
2021/12/11 07:48:45;;;;;;;32.38;15.82;;;0.90;99.90;;;;;;5104765;28;20028;-60
2021/12/11 07:51:13;;;;;;;27.65;15.55;;;1.00;99.90;;;;;;5103286;28;20086;-60
2021/12/11 07:53:40;;;;;;;35.38;15.23;;;0.90;99.90;;;;;;5102376;28;20127;-60
2021/12/11 07:56:08;;;;;;;29.27;15.13;;;0.90;99.90;;;;;;5094978;28;20415;-60
2021/12/11 07:58:35;;;;;;;31.48;15.32;;;0.90;99.90;;;;;;5103982;28;20048;-60
2021/12/11 08:01:05;;;;;;;39.28;17.30;;;0.90;99.90;;;;;;5099796;28;20073;-60
2021/12/11 08:03:33;;;;;;;39.17;18.05;;;0.90;99.90;;;;;;5094569;28;20040;-60
2021/12/11 08:06:00;;;;;;;37.00;19.38;;;0.90;99.90;;;;;;5094192;28;20036;-59
2021/12/11 08:08:28;;;;;;;41.00;21.17;;;1.00;99.90;;;;;;5094505;28;20040;-60
2021/12/11 08:10:58;;;;;;;36.88;17.65;;;1.10;99.90;;;;;;5094340;28;20064;-59
2021/12/11 08:13:26;;;;;;;41.08;19.65;;;1.10;99.90;;;;;;5094327;28;20086;-59
2021/12/11 08:15:55;;;;;;;41.47;20.10;;;1.10;99.90;;;;;;5093862;28;20557;-59
2021/12/11 08:18:24;;;;;;;41.92;21.60;;;1.00;99.90;;;;;;5094426;28;20093;-60
2021/12/11 08:20:52;;;;;;;45.25;19.67;;;1.10;99.90;;;;;;5093939;28;20055;-59
2021/12/11 08:23:22;;;;;;;40.78;18.63;;;1.00;99.90;;;;;;5093914;28;20080;-59
2021/12/11 08:25:51;;;;;;;38.17;17.75;;;1.10;99.90;;;;;;5093971;28;20040;-59
2021/12/11 08:28:25;;;;;;;35.75;17.88;;;1.10;99.90;;;;;;5075740;28;20048;-59
2021/12/11 08:30:52;;;;;;;32.05;17.08;;;1.20;99.90;;;;;;5093759;28;20066;-59
2021/12/11 08:33:20;;;;;;;34.75;19.73;;;1.10;99.90;;;;;;5093776;28;20052;-60
2021/12/11 08:35:49;;;;;;;40.63;19.38;;;1.00;99.90;;;;;;5093605;28;20051;-60
2021/12/11 08:38:17;;;;;;;41.20;19.73;;;1.00;99.90;;;;;;5093679;28;20036;-60
2021/12/11 08:40:48;;;;;;;36.47;19.73;;;1.00;99.90;;;;;;5093879;28;20123;-59
2021/12/11 08:43:19;;;;;;;35.50;19.10;;;1.10;99.90;;;;;;5093733;28;20044;-60
2021/12/11 08:46:00;;;;;;;37.95;19.00;;;1.10;99.90;;;;;;5093177;28;20044;-60
2021/12/11 08:48:27;;;;;;;36.60;18.25;;;1.10;99.90;;;;;;5093616;28;20036;-60
2021/12/11 08:51:01;;;;;;;34.42;18.88;;;1.10;99.90;;;;;;5093615;28;20085;-60
2021/12/11 08:53:28;;;;;;;41.13;21.00;;;1.10;99.90;;;;;;5093438;28;20047;-59
2021/12/11 08:55:55;;;;;;;;;;;1.20;99.90;;;;;;5093781;28;20066;-60
2021/12/11 08:58:26;;;;;;;42.00;20.90;;;1.30;99.90;;;;;;5100051;28;19943;-59
2021/12/11 09:01:04;;;;;;;53.35;26.45;;;1.30;99.90;;;;;;5114082;28;20050;-56
2021/12/11 09:04:00;;;;;;;51.70;26.60;;;1.30;99.90;;;;;;5095404;28;20139;-57
2021/12/11 09:06:51;;;;;;;45.95;23.55;;;1.30;99.90;;;;;;5113028;28;20058;-57
2021/12/11 09:09:39;;;;;;;41.45;21.55;;;1.40;99.90;;;;;;5095099;28;20104;-56
2021/12/11 09:12:18;;;;;;;38.45;20.48;;;1.40;99.90;;;;;;5111865;28;20052;-56
2021/12/11 09:14:55;;;;;;;47.85;22.17;;;1.50;99.90;;;;;;5095712;28;20065;-55
2021/12/11 09:17:30;;;;;;;41.25;21.05;;;1.40;99.90;;;;;;5113110;28;20092;-56
2021/12/11 09:20:09;;;;;;;42.67;22.08;;;1.40;99.90;;;;;;5113254;28;20056;-57
2021/12/11 09:22:44;;;;;;;42.60;21.95;;;1.40;99.90;;;;;;5113379;28;20044;-55
2021/12/11 09:25:43;;;;;;;44.72;23.80;;;1.30;99.90;;;;;;5113119;28;20035;-55
2021/12/11 09:28:33;;;;;;;48.15;22.25;;;1.30;99.90;;;;;;5064609;28;20487;-55
2021/12/11 09:31:26;;;;;;;44.88;23.00;;;1.40;99.90;;;;;;5113109;28;20053;-55
2021/12/11 09:34:02;;;;;;;44.45;23.35;;;1.40;99.90;;;;;;5113139;28;20051;-56
2021/12/11 09:36:35;;;;;;;44.00;24.17;;;1.50;99.90;;;;;;5112506;28;20044;-57
2021/12/11 09:39:16;;;;;;;43.30;22.48;;;1.50;99.90;;;;;;5113237;28;20044;-57
2021/12/11 09:41:43;;;;;;;53.10;22.08;;;1.90;99.90;;;;;;5109317;28;20085;-56
2021/12/11 09:44:39;;;;;;;46.27;23.93;;;1.60;99.90;;;;;;5112953;28;20085;-56
2021/12/11 09:47:11;;;;;;;44.00;23.13;;;1.40;99.90;;;;;;5109597;28;20718;-57
2021/12/11 09:49:44;;;;;;;47.10;24.20;;;1.40;99.90;;;;;;5112946;28;20139;-58
2021/12/11 09:52:23;;;;;;;53.45;25.33;;;1.50;99.90;;;;;;5112813;28;20039;-57
2021/12/11 09:54:58;;;;;;;52.47;25.70;;;1.60;99.90;;;;;;5112711;28;20074;-57
2021/12/11 09:57:29;;;;;;;47.47;23.67;;;1.70;99.90;;;;;;5112249;28;20043;-57
2021/12/11 09:59:59;;;;;;;46.15;24.23;;;1.70;99.90;;;;;;5112772;28;20048;-57
2021/12/11 10:02:32;;;;;;;50.90;26.50;;;1.70;99.90;;;;;;5108996;28;20522;-55
2021/12/11 10:05:07;;;;;;;51.00;23.60;;;1.80;99.90;;;;;;5101938;28;20076;-56
2021/12/11 10:07:39;;;;;;;45.15;23.83;;;1.70;99.90;;;;;;5100927;28;20040;-57
2021/12/11 10:10:19;;;;;;;49.63;26.15;;;1.70;99.90;;;;;;5082348;28;20581;-56
2021/12/11 10:12:52;;;;;;;55.20;24.77;;;1.70;99.90;;;;;;5100624;28;20545;-57
2021/12/11 10:15:25;;;;;;;46.97;25.30;;;1.60;99.90;;;;;;5101275;28;20051;-57
2021/12/11 10:18:04;;;;;;;48.45;24.17;;;1.70;99.90;;;;;;5100692;28;20074;-57
2021/12/11 10:20:45;;;;;;;47.22;24.90;;;1.70;99.90;;;;;;5100793;28;20055;-56
2021/12/11 10:23:17;;;;;;;49.50;25.00;;;1.80;99.90;;;;;;5100882;28;20484;-56
2021/12/11 10:25:47;;;;;;;50.40;26.63;;;1.80;99.90;;;;;;5100382;28;20106;-56
2021/12/11 10:28:19;;;;;;;48.85;26.83;;;1.90;99.90;;;;;;5082753;28;20036;-55
2021/12/11 10:30:54;;;;;;;53.65;27.52;;;1.90;99.90;;;;;;5100413;28;20113;-57
2021/12/11 10:33:25;;;;;;;59.47;29.13;;;1.90;99.90;;;;;;5101095;28;20039;-57
2021/12/11 10:35:58;;;;;;;55.58;26.45;;;1.90;99.90;;;;;;5100245;28;20040;-57
2021/12/11 10:38:26;;;;;;;49.00;25.05;;;2.00;99.90;;;;;;5100568;28;20039;-58
2021/12/11 10:41:15;;;;;;;53.42;24.73;;;2.00;99.90;;;;;;5100793;28;20042;-56
2021/12/11 10:43:53;;;;;;;54.83;25.20;;;1.90;99.90;;;;;;5100706;28;20491;-57
2021/12/11 10:46:27;;;;;;;53.33;25.23;;;1.90;99.90;;;;;;5100686;28;20047;-58
2021/12/11 10:48:54;;;;;;;61.15;26.30;;;2.00;99.90;;;;;;5102346;28;20081;-57
2021/12/11 10:51:26;;;;;;;;;;;2.00;99.90;;;;;;5101190;28;20047;-57
2021/12/11 10:53:54;;;;;;;46.85;23.98;;;2.00;99.90;;;;;;5076961;28;19931;-57
2021/12/11 10:56:22;;;;;;;46.50;25.45;;;2.00;99.90;;;;;;5101463;28;20035;-56
2021/12/11 10:59:04;;;;;;;41.95;23.75;;;1.90;99.90;;;;;;5101794;28;20086;-56
2021/12/11 11:01:46;;;;;;;58.55;26.42;;;1.80;99.90;;;;;;5100351;28;20071;-56
2021/12/11 11:04:18;;;;;;;50.78;26.17;;;1.80;99.90;;;;;;5099349;28;20074;-56
2021/12/11 11:06:45;;;;;;;53.75;28.27;;;1.70;99.90;;;;;;5101679;28;20040;-57
2021/12/11 11:09:15;;;;;;;60.20;26.95;;;1.90;99.90;;;;;;5101910;28;20040;-57
2021/12/11 11:11:43;;;;;;;53.30;27.60;;;2.00;99.90;;;;;;5100323;28;20553;-57
2021/12/11 11:14:12;;;;;;;54.33;25.48;;;1.90;99.90;;;;;;5100803;28;20040;-57
2021/12/11 11:16:42;;;;;;;54.95;26.35;;;2.00;99.90;;;;;;5101507;28;20511;-56
2021/12/11 11:19:09;;;;;;;46.00;24.25;;;2.10;99.90;;;;;;5110185;28;20048;-54
2021/12/11 11:21:43;;;;;;;44.78;23.58;;;2.20;99.90;;;;;;5096386;28;20039;-57
2021/12/11 11:24:11;;;;;;;51.42;25.02;;;2.10;99.90;;;;;;5115551;28;20130;-56
2021/12/11 11:26:43;;;;;;;44.75;24.38;;;2.10;99.90;;;;;;5115491;28;20067;-55
2021/12/11 11:29:16;;;;;;;52.88;26.00;;;2.10;99.90;;;;;;5115552;28;20123;-55
2021/12/11 11:31:45;;;;;;;52.33;25.98;;;2.00;99.90;;;;;;5115697;28;20040;-57
2021/12/11 11:34:16;;;;;;;47.67;25.02;;;2.00;99.90;;;;;;5115506;28;20058;-57
2021/12/11 11:36:44;;;;;;;46.60;22.95;;;2.00;99.90;;;;;;5114982;28;20100;-57
2021/12/11 11:39:20;;;;;;;48.45;25.25;;;2.10;99.90;;;;;;5115489;28;20048;-57
2021/12/11 11:41:51;;;;;;;50.72;24.55;;;2.10;99.90;;;;;;5115371;28;20044;-57
2021/12/11 11:44:21;;;;;;;53.10;25.48;;;2.10;99.90;;;;;;5115134;28;20041;-57
2021/12/11 11:46:48;;;;;;;51.90;25.50;;;2.20;99.90;;;;;;5114928;28;20042;-57
2021/12/11 11:49:16;;;;;;;;;;;2.20;99.90;;;;;;5115750;28;20043;-56
2021/12/11 11:51:49;;;;;;;29.23;14.37;;;2.20;99.90;;;;;;5115347;28;19923;-56
2021/12/11 11:54:18;;;;;;;32.08;15.25;;;1.90;99.90;;;;;;5115159;28;20046;-57
2021/12/11 11:56:50;;;;;;;22.63;10.85;;;2.00;99.90;;;;;;5114592;28;20043;-56
2021/12/11 11:59:18;;;;;;;13.70;8.27;;;2.00;99.90;;;;;;5115077;28;20042;-56
2021/12/11 12:01:57;;;;;;;14.00;5.72;;;2.00;99.90;;;;;;5115534;28;20100;-56
2021/12/11 12:04:24;;;;;;;10.10;3.70;;;2.00;99.90;;;;;;5114860;28;20039;-55
2021/12/11 12:06:56;;;;;;;4.68;2.70;;;2.00;99.90;;;;;;5112996;22;20051;-60
2021/12/11 12:09:32;;;;;;;9.73;3.25;;;2.30;99.90;;;;;;5092250;28;20412;-60
2021/12/11 12:12:00;;;;;;;5.72;2.60;;;2.10;99.90;;;;;;5093085;28;20040;-60
2021/12/11 12:14:32;;;;;;;5.55;3.05;;;2.10;99.90;;;;;;5093962;28;20044;-60
2021/12/11 12:17:00;;;;;;;5.32;2.58;;;2.00;99.90;;;;;;5093748;28;20287;-60
2021/12/11 12:19:28;;;;;;;4.22;2.47;;;2.00;99.90;;;;;;5080261;28;20102;-60
2021/12/11 12:21:58;;;;;;;4.25;2.85;;;2.00;99.90;;;;;;5065055;28;20048;-60
2021/12/11 12:24:31;;;;;;;8.68;3.08;;;2.10;99.90;;;;;;5073984;28;20045;-60
2021/12/11 12:27:03;;;;;;;4.00;2.58;;;2.00;99.90;;;;;;5073416;28;20033;-60
2021/12/11 12:29:31;;;;;;;3.80;2.55;;;1.90;99.90;;;;;;5073614;28;20083;-60
2021/12/11 12:32:22;;;;;;;5.45;2.53;;;2.00;99.90;;;;;;5074093;28;20044;-60
2021/12/11 12:34:52;;;;;;;10.70;3.17;;;1.90;99.90;;;;;;5083084;28;20135;-60
2021/12/11 12:37:20;;;;;;;5.45;2.42;;;2.00;99.90;;;;;;5080031;28;20040;-60
2021/12/11 12:39:50;;;;;;;5.25;2.33;;;2.00;99.90;;;;;;5082848;28;20069;-60
2021/12/11 12:42:37;;;;;;;4.20;2.40;;;1.90;99.90;;;;;;5079692;28;20064;-60
2021/12/11 12:45:31;;;;;;;7.68;2.95;;;2.00;99.90;;;;;;5081361;28;20485;-60
2021/12/11 12:48:05;;;;;;;8.15;2.22;;;2.00;99.90;;;;;;5055943;28;20040;-60
2021/12/11 12:50:38;;;;;;;7.22;2.45;;;2.10;99.90;;;;;;5080810;28;20044;-60
2021/12/11 12:53:06;;;;;;;6.30;3.00;;;2.20;99.90;;;;;;5082024;28;20041;-60
2021/12/11 12:55:39;;;;;;;;;;;2.30;99.90;;;;;;5075974;28;20124;-60
2021/12/11 12:58:11;;;;;;;3.10;2.38;;;2.40;99.90;;;;;;5082046;28;19936;-60
2021/12/11 13:00:50;;;;;;;6.72;1.90;;;2.40;99.90;;;;;;5073828;28;20420;-60
2021/12/11 13:03:22;;;;;;;5.00;1.85;;;2.30;99.90;;;;;;5077455;28;20068;-60
2021/12/11 13:05:59;;;;;;;4.95;2.35;;;2.40;99.90;;;;;;5081267;28;20447;-60
2021/12/11 13:08:32;;;;;;;5.18;2.15;;;2.40;99.90;;;;;;5081645;28;20044;-60
2021/12/11 13:11:08;;;;;;;6.75;2.47;;;2.50;99.90;;;;;;5084652;28;20040;-60
2021/12/11 13:13:36;;;;;;;2.78;1.98;;;2.50;99.90;;;;;;5080267;28;20060;-60
2021/12/11 13:16:06;;;;;;;2.58;1.75;;;2.50;99.90;;;;;;5081417;28;20086;-60
2021/12/11 13:18:38;;;;;;;4.68;2.33;;;2.50;99.90;;;;;;5079359;28;20048;-60
2021/12/11 13:21:12;;;;;;;2.85;2.17;;;2.50;99.90;;;;;;5063976;28;20045;-60